Time;durP1;ratioP1;P1;durP2;ratioP2;P2;SDS_P1;SDS_P2;PMS_P1;PMS_P2;Temp;Humidity;BMP_temperature;BMP_pressure;BME280_temperature;BME280_humidity;BME280_pressure;Samples;Min_cycle;Max_cycle;Signal;HPM_P1;HPM_P2
2022/01/03 00:00:37;;;;;;;12.30;4.70;;;;;;;8.80;90.18;98897.13;5117993;22;21198;-80
2022/01/03 00:03:07;;;;;;;8.00;3.97;;;;;;;8.94;89.24;98892.94;5095650;22;20217;-81
2022/01/03 00:05:34;;;;;;;13.03;4.03;;;;;;;8.92;89.47;98910.84;5121789;22;20209;-79
2022/01/03 00:08:02;;;;;;;10.10;4.23;;;;;;;8.88;89.45;98895.28;5096735;22;21449;-79
2022/01/03 00:10:29;;;;;;;8.50;4.30;;;;;;;8.85;89.13;98900.13;5127527;22;25444;-79
2022/01/03 00:12:56;;;;;;;12.97;4.77;;;;;;;8.82;89.37;98880.03;5112837;22;22223;-79
2022/01/03 00:15:23;;;;;;;10.20;3.93;;;;;;;8.80;89.55;98882.06;5122529;22;20198;-83
2022/01/03 00:17:51;;;;;;;8.70;4.10;;;;;;;8.76;89.59;98890.53;5104974;22;20198;-81
2022/01/03 00:20:18;;;;;;;11.53;4.33;;;;;;;8.70;90.42;98892.03;5100939;22;20263;-79
2022/01/03 00:23:05;;;;;;;7.87;4.40;;;;;;;8.73;89.90;98886.38;5119647;22;20214;-81
2022/01/03 00:25:36;;;;;;;9.83;4.20;;;;;;;8.67;90.41;98879.13;5108504;22;20208;-82
2022/01/03 00:28:22;;;;;;;10.97;4.10;;;;;;;8.71;90.05;98893.69;5106004;22;20709;-82
2022/01/03 00:30:52;;;;;;;10.07;4.00;;;;;;;8.71;89.83;98883.09;5110380;22;20291;-84
2022/01/03 00:33:19;;;;;;;11.57;4.47;;;;;;;8.72;89.64;98883.91;5119730;22;20233;-81
2022/01/03 00:35:53;;;;;;;9.47;4.10;;;;;;;8.72;89.44;98886.56;5091712;22;22535;-81
2022/01/03 00:38:21;;;;;;;9.80;4.23;;;;;;;8.69;89.32;98887.75;5097982;22;20222;-78
2022/01/03 00:40:48;;;;;;;8.27;4.23;;;;;;;8.73;89.17;98881.06;5123150;22;25423;-84
2022/01/03 00:43:16;;;;;;;11.67;3.83;;;;;;;8.75;88.95;98887.03;5104060;22;22571;-81
2022/01/03 00:45:42;;;;;;;7.50;3.90;;;;;;;8.78;88.86;98883.22;5134844;22;20202;-82
2022/01/03 00:48:10;;;;;;;8.33;4.00;;;;;;;8.76;88.71;98886.06;5097447;22;20205;-82
2022/01/03 00:50:37;;;;;;;7.57;3.50;;;;;;;8.74;88.74;98885.41;5117334;22;22287;-81
2022/01/03 00:53:05;;;;;;;7.57;3.90;;;;;;;8.70;89.19;98884.06;5110075;22;20202;-79
2022/01/03 00:55:32;;;;;;;9.93;4.10;;;;;;;8.69;88.93;98887.75;5108104;22;20265;-83
2022/01/03 00:58:14;;;;;;;7.60;3.90;;;;;;;8.72;88.85;98881.25;5122115;22;20236;-83
2022/01/03 01:00:41;;;;;;;8.87;4.00;;;;;;;8.72;88.95;98895.34;5119928;22;22807;-80
2022/01/03 01:03:19;;;;;;;9.33;3.63;;;;;;;8.75;88.15;98867.66;5126843;22;20217;-81
2022/01/03 01:05:50;;;;;;;7.90;3.60;;;;;;;8.75;88.21;98889.69;5117195;22;20208;-82
2022/01/03 01:08:19;;;;;;;10.07;3.50;;;;;;;8.73;87.70;98888.22;5114130;22;20972;-78
2022/01/03 01:10:46;;;;;;;6.60;3.50;;;;;;;8.76;87.69;98867.50;5100773;22;20207;-80
2022/01/03 01:13:15;;;;;;;9.83;3.93;;;;;;;8.73;87.60;98857.22;5094913;22;23001;-81
2022/01/03 01:15:41;;;;;;;7.00;3.40;;;;;;;8.72;87.23;98863.53;5106789;22;21178;-82
2022/01/03 01:18:08;;;;;;;8.70;3.37;;;;;;;8.70;87.36;98860.22;5082128;23;20315;-82
2022/01/03 01:20:37;;;;;;;7.83;3.33;;;;;;;8.74;87.18;98879.28;5107794;22;20595;-82
2022/01/03 01:23:05;;;;;;;10.03;3.27;;;;;;;8.69;87.24;98863.88;5076864;22;21280;-84
2022/01/03 01:28:04;;;;;;;8.07;3.50;;;;;;;8.70;86.75;98860.22;5101561;22;20198;-83
2022/01/03 01:30:31;;;;;;;7.93;3.10;;;;;;;8.70;86.53;98849.59;5123275;22;20205;-81
2022/01/03 01:33:01;;;;;;;9.03;3.00;;;;;;;8.65;86.71;98865.22;5082254;22;25351;-79
2022/01/03 01:35:42;;;;;;;7.40;2.90;;;;;;;8.57;87.22;98855.47;5113625;22;21222;-82
2022/01/03 01:38:10;;;;;;;9.90;3.50;;;;;;;8.58;87.01;98856.28;5096990;22;22821;-81
2022/01/03 01:40:43;;;;;;;7.13;3.20;;;;;;;8.49;87.97;98860.78;5100366;22;20206;-79
2022/01/03 01:43:12;;;;;;;9.73;3.60;;;;;;;8.45;88.25;98868.25;5117330;22;21156;-77
2022/01/03 01:45:43;;;;;;;9.03;3.50;;;;;;;8.48;88.19;98855.66;5085207;22;20260;-80
2022/01/03 01:48:11;;;;;;;8.03;3.03;;;;;;;8.50;88.40;98864.25;5096954;22;20319;-84
2022/01/03 01:50:40;;;;;;;8.50;3.23;;;;;;;8.44;88.57;98865.78;5138157;22;20232;-84
2022/01/03 01:53:08;;;;;;;9.27;3.00;;;;;;;8.45;88.37;98862.97;5087267;22;20210;-82
2022/01/03 01:55:48;;;;;;;7.10;3.20;;;;;;;8.50;88.32;98870.41;5097119;22;20885;-80
2022/01/03 01:58:36;;;;;;;8.77;2.90;;;;;;;8.47;88.09;98854.81;5107160;22;21701;-81
2022/01/03 02:01:05;;;;;;;6.43;2.93;;;;;;;8.50;88.22;98858.94;5137015;22;21769;-80
2022/01/03 02:03:38;;;;;;;8.17;3.97;;;;;;;8.43;88.44;98872.91;5113055;22;20253;-83
2022/01/03 02:06:15;;;;;;;8.67;2.97;;;;;;;8.43;88.48;98854.34;5091928;22;20206;-83
2022/01/03 02:08:55;;;;;;;5.20;2.80;;;;;;;8.38;89.04;98854.00;5116882;22;22914;-82
2022/01/03 02:11:32;;;;;;;11.23;3.33;;;;;;;8.36;89.78;98861.28;5082428;22;20210;-80
2022/01/03 02:13:59;;;;;;;7.47;3.00;;;;;;;8.34;89.61;98860.63;5088572;22;20208;-81
2022/01/03 02:16:25;;;;;;;6.97;3.10;;;;;;;8.34;89.32;98852.69;5095785;22;20202;-83
2022/01/03 02:18:52;;;;;;;12.10;3.43;;;;;;;8.33;89.65;98848.34;5121269;22;20210;-81
2022/01/03 02:21:21;;;;;;;9.27;3.57;;;;;;;8.29;89.53;98839.13;5085298;22;20273;-81
2022/01/03 02:23:47;;;;;;;8.63;3.27;;;;;;;8.28;89.35;98833.97;5082722;23;20206;-77
2022/01/03 02:26:13;;;;;;;7.83;2.90;;;;;;;8.18;90.05;98842.94;5106028;22;22300;-82
2022/01/03 02:28:40;;;;;;;7.23;3.00;;;;;;;8.15;90.18;98826.56;5087453;23;21981;-80
2022/01/03 02:31:07;;;;;;;8.90;2.90;;;;;;;8.13;90.31;98817.97;5133173;22;21501;-80
2022/01/03 02:33:33;;;;;;;8.73;3.10;;;;;;;8.12;90.00;98834.84;5099682;22;21447;-82
2022/01/03 02:36:01;;;;;;;9.87;3.70;;;;;;;8.06;90.21;98830.22;5123187;22;22344;-82
2022/01/03 02:38:27;;;;;;;8.37;3.10;;;;;;;8.10;90.01;98844.78;5098738;22;20206;-82
2022/01/03 02:40:54;;;;;;;6.27;3.00;;;;;;;8.13;90.93;98837.31;5113518;22;20202;-81
2022/01/03 02:43:22;;;;;;;8.83;3.43;;;;;;;8.09;90.69;98827.22;5117363;22;20220;-82
2022/01/03 02:45:49;;;;;;;7.17;3.07;;;;;;;8.08;90.88;98830.84;5094608;22;20213;-82
2022/01/03 02:48:16;;;;;;;11.10;3.20;;;;;;;8.00;91.17;98818.47;5122634;22;20206;-82
2022/01/03 02:50:42;;;;;;;5.20;2.63;;;;;;;7.94;91.24;98824.44;5095310;22;21276;-80
2022/01/03 02:53:09;;;;;;;8.33;3.07;;;;;;;7.91;91.22;98830.88;5117044;22;21421;-79
2022/01/03 02:55:35;;;;;;;9.23;2.97;;;;;;;7.91;91.83;98827.41;5048402;22;20577;-80
2022/01/03 02:58:08;;;;;;;6.13;2.77;;;;;;;7.78;92.25;98822.66;5100773;22;20243;-78
2022/01/03 03:00:45;;;;;;;8.07;3.00;;;;;;;7.70;92.66;98820.00;5074478;22;20218;-81
2022/01/03 03:03:12;;;;;;;5.23;2.40;;;;;;;7.55;93.49;98812.72;5099832;22;20221;-78
2022/01/03 03:05:39;;;;;;;6.57;2.90;;;;;;;7.49;94.07;98810.75;5116428;22;20357;-81
2022/01/03 03:08:07;;;;;;;10.17;3.07;;;;;;;7.42;94.10;98809.72;5112737;22;20994;-84
2022/01/03 03:10:33;;;;;;;7.40;2.83;;;;;;;7.44;94.40;98820.16;5081964;22;20198;-79
2022/01/03 03:13:00;;;;;;;6.30;3.07;;;;;;;7.38;94.74;98821.66;5114889;22;20198;-79
2022/01/03 03:15:27;;;;;;;6.50;3.30;;;;;;;7.35;94.46;98806.94;5117583;22;20816;-78
2022/01/03 03:17:53;;;;;;;8.07;2.80;;;;;;;7.31;95.42;98810.06;5118637;22;23324;-82
2022/01/03 03:20:26;;;;;;;6.57;2.80;;;;;;;7.27;95.05;98798.16;5098764;22;25480;-80
2022/01/03 03:22:54;;;;;;;5.70;2.80;;;;;;;7.33;94.97;98802.81;5100581;22;20347;-82
2022/01/03 03:25:22;;;;;;;9.83;2.87;;;;;;;7.31;94.72;98807.44;5101356;22;20201;-83
2022/01/03 03:27:52;;;;;;;8.17;3.13;;;;;;;7.31;94.45;98807.44;5084333;22;20229;-79
2022/01/03 03:30:33;;;;;;;9.80;3.60;;;;;;;7.25;94.86;98800.94;5101525;22;20408;-80
2022/01/03 03:33:10;;;;;;;7.97;3.20;;;;;;;7.25;94.34;98803.59;5129043;22;20202;-82
2022/01/03 03:35:37;;;;;;;5.60;2.57;;;;;;;7.25;94.53;98806.25;5109856;22;20630;-80
2022/01/03 03:38:04;;;;;;;6.60;3.10;;;;;;;7.26;93.81;98812.34;5099172;22;20247;-81
2022/01/03 03:40:31;;;;;;;6.93;3.23;;;;;;;7.29;93.12;98806.75;5091485;22;22197;-81
2022/01/03 03:42:58;;;;;;;4.73;2.53;;;;;;;7.28;93.15;98805.09;5128938;22;20484;-83
2022/01/03 03:45:25;;;;;;;4.40;2.10;;;;;;;7.31;92.13;98802.13;5093178;22;20198;-80
2022/01/03 03:47:52;;;;;;;5.13;2.60;;;;;;;7.34;91.82;98815.84;5085917;22;24897;-80
2022/01/03 03:50:19;;;;;;;9.20;2.70;;;;;;;7.29;91.76;98817.34;5112443;22;20205;-80
2022/01/03 03:52:52;;;;;;;8.27;2.87;;;;;;;7.29;91.74;98806.75;5100785;22;20209;-80
2022/01/03 03:55:18;;;;;;;9.77;2.93;;;;;;;7.23;91.90;98802.09;5095076;22;21465;-81
2022/01/03 03:57:45;;;;;;;5.30;2.57;;;;;;;7.15;92.42;98806.41;5091665;22;21187;-81
2022/01/03 04:00:15;;;;;;;8.87;2.97;;;;;;;7.17;92.26;98814.19;5119360;22;20212;-80
2022/01/03 04:02:41;;;;;;;7.67;2.83;;;;;;;7.17;91.68;98804.44;5094099;22;20209;-84
2022/01/03 04:05:08;;;;;;;6.63;2.53;;;;;;;7.16;91.98;98812.50;5106239;22;22435;-82
2022/01/03 04:07:36;;;;;;;7.47;2.80;;;;;;;7.06;92.57;98802.09;5111822;22;20205;-79
2022/01/03 04:10:07;;;;;;;6.87;2.57;;;;;;;7.04;92.26;98819.13;5115717;22;25290;-82
2022/01/03 04:12:34;;;;;;;8.13;2.80;;;;;;;6.95;92.57;98797.94;5099222;22;20206;-78
2022/01/03 04:15:00;;;;;;;7.17;2.20;;;;;;;6.93;92.96;98814.94;5099238;22;20210;-79
2022/01/03 04:17:27;;;;;;;7.10;2.60;;;;;;;6.87;93.47;98786.53;5096990;22;21328;-81
2022/01/03 04:19:53;;;;;;;9.47;3.23;;;;;;;6.77;93.58;98799.88;5109903;22;21677;-79
2022/01/03 04:22:20;;;;;;;10.70;2.97;;;;;;;6.78;94.50;98798.88;5136487;22;20201;-79
2022/01/03 04:24:46;;;;;;;8.80;3.43;;;;;;;6.66;95.54;98790.44;5093048;22;20206;-80
2022/01/03 04:27:13;;;;;;;6.53;3.33;;;;;;;6.62;96.69;98799.66;5112330;22;20412;-80
2022/01/03 04:29:40;;;;;;;8.83;3.90;;;;;;;6.63;97.50;98798.69;5097018;22;20300;-81
2022/01/03 04:32:07;;;;;;;8.80;3.80;;;;;;;6.63;97.46;98792.56;5091980;22;20213;-81
2022/01/03 04:34:33;;;;;;;10.07;4.00;;;;;;;6.62;98.02;98789.09;5121448;22;20205;-78
2022/01/03 04:37:00;;;;;;;14.60;4.13;;;;;;;6.64;98.06;98787.13;5094547;22;22367;-78
2022/01/03 04:39:26;;;;;;;12.37;4.27;;;;;;;6.59;98.31;98778.03;5123617;22;20633;-81
2022/01/03 04:41:53;;;;;;;10.83;4.70;;;;;;;6.60;98.68;98788.41;5116907;22;20202;-79
2022/01/03 04:44:20;;;;;;;8.60;4.30;;;;;;;6.65;98.50;98777.34;5132535;22;20213;-77
2022/01/03 04:46:46;;;;;;;10.73;4.47;;;;;;;6.59;98.88;98786.78;5094349;22;25055;-81
2022/01/03 04:49:13;;;;;;;14.50;5.07;;;;;;;6.62;98.68;98786.44;5092137;22;25526;-80
2022/01/03 04:51:40;;;;;;;12.67;4.63;;;;;;;6.62;98.42;98794.38;5100067;22;22492;-79
2022/01/03 04:54:07;;;;;;;9.47;4.73;;;;;;;6.65;97.95;98794.06;5121185;22;22170;-83
2022/01/03 04:56:33;;;;;;;9.37;4.47;;;;;;;6.64;98.44;98792.41;5110089;22;20206;-79
2022/01/03 04:59:01;;;;;;;9.43;4.20;;;;;;;6.67;97.77;98802.66;5120319;22;20206;-80
2022/01/03 05:01:27;;;;;;;7.07;4.03;;;;;;;6.61;98.00;98798.00;5135046;22;20331;-78
2022/01/03 05:03:54;;;;;;;9.87;4.27;;;;;;;6.60;97.66;98801.63;5116204;22;20249;-79
2022/01/03 05:06:21;;;;;;;8.60;4.20;;;;;;;6.61;98.24;98811.22;5118548;22;20205;-79
2022/01/03 05:08:47;;;;;;;8.83;4.73;;;;;;;6.59;98.77;98809.72;5137813;22;20930;-81
2022/01/03 05:11:14;;;;;;;11.43;4.53;;;;;;;6.51;98.95;98808.72;5085388;22;20209;-78
2022/01/03 05:13:41;;;;;;;12.43;4.40;;;;;;;6.54;98.95;98811.03;5121216;22;20239;-84
2022/01/03 05:16:09;;;;;;;12.30;4.80;;;;;;;6.60;98.13;98812.19;5102922;22;20209;-83
2022/01/03 05:18:36;;;;;;;7.97;4.33;;;;;;;6.52;98.27;98815.66;5124682;22;20198;-80
2022/01/03 05:21:02;;;;;;;11.37;4.50;;;;;;;6.53;98.32;98813.81;5108608;22;20259;-82
2022/01/03 05:23:29;;;;;;;10.40;4.77;;;;;;;6.51;98.33;98807.91;5147078;22;21676;-82
2022/01/03 05:25:56;;;;;;;12.73;5.40;;;;;;;6.50;99.04;98809.69;5107136;22;20243;-80
2022/01/03 05:28:22;;;;;;;12.20;5.50;;;;;;;6.49;98.83;98804.59;5132106;22;22134;-78
2022/01/03 05:30:49;;;;;;;11.93;4.60;;;;;;;6.42;98.86;98804.38;5107748;22;20789;-78
2022/01/03 05:33:16;;;;;;;14.63;5.63;;;;;;;6.41;99.32;98804.53;5127184;22;21115;-79
2022/01/03 05:35:42;;;;;;;14.63;6.27;;;;;;;6.39;99.47;98799.44;5119238;22;21185;-83
2022/01/03 05:38:09;;;;;;;15.23;5.87;;;;;;;6.42;99.12;98808.84;5125892;22;20209;-81
2022/01/03 05:40:36;;;;;;;14.67;6.00;;;;;;;6.40;99.22;98805.53;5096802;22;21001;-79
2022/01/03 05:43:02;;;;;;;11.97;5.60;;;;;;;6.32;99.85;98807.16;5128322;22;20252;-82
2022/01/03 05:45:29;;;;;;;12.43;6.60;;;;;;;6.35;99.90;98803.38;5103510;22;22031;-83
2022/01/03 05:47:55;;;;;;;12.80;5.90;;;;;;;6.38;100.00;98802.22;5142459;22;22866;-80
2022/01/03 05:50:22;;;;;;;10.87;5.33;;;;;;;6.31;100.00;98802.84;5091112;22;20208;-81
2022/01/03 05:52:49;;;;;;;13.23;5.43;;;;;;;6.28;100.00;98804.97;5107185;22;20210;-82
2022/01/03 05:55:19;;;;;;;13.00;4.97;;;;;;;6.30;99.99;98806.47;5119454;22;20323;-79
2022/01/03 05:57:45;;;;;;;12.60;5.37;;;;;;;6.26;99.91;98805.13;5126623;22;20419;-81
2022/01/03 06:00:15;;;;;;;10.10;5.53;;;;;;;6.21;100.00;98810.06;5126086;22;20206;-82
2022/01/03 06:02:43;;;;;;;9.37;4.70;;;;;;;6.23;100.00;98809.91;5108078;22;20318;-80
2022/01/03 06:05:19;;;;;;;11.87;5.57;;;;;;;6.16;100.00;98809.72;5124022;22;21206;-82
2022/01/03 06:07:46;;;;;;;9.30;4.50;;;;;;;6.16;100.00;98804.44;5109826;22;22003;-82
2022/01/03 06:10:15;;;;;;;13.93;4.90;;;;;;;6.17;100.00;98808.72;5129463;22;20275;-81
2022/01/03 06:12:42;;;;;;;14.43;5.27;;;;;;;6.17;100.00;98810.53;5148065;22;20225;-80
2022/01/03 06:15:09;;;;;;;11.50;5.43;;;;;;;6.11;100.00;98810.19;5137163;22;20202;-80
2022/01/03 06:17:35;;;;;;;12.97;5.73;;;;;;;6.09;100.00;98809.50;5109121;22;20198;-79
2022/01/03 06:20:02;;;;;;;13.40;5.90;;;;;;;6.09;100.00;98821.88;5109966;22;22912;-79
2022/01/03 06:22:29;;;;;;;10.40;5.50;;;;;;;6.08;100.00;98821.03;5122278;22;20197;-83
2022/01/03 06:24:55;;;;;;;12.33;4.90;;;;;;;6.17;100.00;98826.38;5101852;22;20209;-83
2022/01/03 06:27:22;;;;;;;13.33;5.43;;;;;;;6.05;100.00;98820.53;5105090;22;22478;-80
2022/01/03 06:29:48;;;;;;;15.13;5.40;;;;;;;6.01;100.00;98832.38;5113953;22;20204;-83
2022/01/03 06:32:15;;;;;;;10.27;5.20;;;;;;;5.98;100.00;98832.69;5126635;22;20624;-79
2022/01/03 06:34:42;;;;;;;10.17;5.67;;;;;;;5.96;100.00;98829.38;5127574;22;21978;-78
2022/01/03 06:37:08;;;;;;;12.60;5.87;;;;;;;6.01;100.00;98837.66;5129334;22;20197;-81
2022/01/03 06:39:35;;;;;;;11.30;5.23;;;;;;;5.99;100.00;98834.34;5134925;22;20214;-81
2022/01/03 06:42:01;;;;;;;13.60;5.80;;;;;;;6.05;100.00;98839.00;5117203;22;20202;-82
2022/01/03 06:44:28;;;;;;;11.50;5.80;;;;;;;5.99;100.00;98831.72;5100454;22;20394;-80
2022/01/03 06:46:55;;;;;;;10.17;5.10;;;;;;;6.03;100.00;98835.69;5114063;22;21216;-81
2022/01/03 06:49:22;;;;;;;8.97;5.40;;;;;;;5.99;100.00;98842.25;5138412;22;20257;-81
2022/01/03 06:51:49;;;;;;;12.17;5.43;;;;;;;5.93;100.00;98839.25;5103193;22;21455;-77
2022/01/03 06:54:15;;;;;;;11.80;6.10;;;;;;;5.98;100.00;98843.25;5125891;22;20209;-75
2022/01/03 06:56:42;;;;;;;10.83;5.70;;;;;;;5.98;100.00;98836.16;5107565;22;21496;-84
2022/01/03 06:59:09;;;;;;;10.70;5.60;;;;;;;6.01;100.00;98840.31;5113677;22;20215;-84
2022/01/03 07:01:36;;;;;;;13.70;6.47;;;;;;;5.93;100.00;98836.59;5089398;22;20210;-81
2022/01/03 07:04:03;;;;;;;13.30;5.97;;;;;;;5.98;100.00;98836.16;5159827;22;22896;-86
2022/01/03 07:06:31;;;;;;;11.80;5.57;;;;;;;5.93;100.00;98831.31;5106318;22;21333;-80
2022/01/03 07:08:59;;;;;;;13.50;5.93;;;;;;;5.85;100.00;98831.28;5155533;22;20341;-85
2022/01/03 07:11:25;;;;;;;11.27;6.20;;;;;;;5.81;100.00;98831.75;5125672;22;20974;-83
2022/01/03 07:14:04;;;;;;;15.63;6.90;;;;;;;5.80;100.00;98830.88;5102290;22;20202;-81
2022/01/03 07:19:16;;;;;;;17.70;6.70;;;;;;;5.77;100.00;98825.91;5129431;22;20206;-81
2022/01/03 07:21:43;;;;;;;15.07;6.80;;;;;;;5.78;100.00;98835.47;5114442;22;22051;-84
2022/01/03 07:24:10;;;;;;;12.90;6.20;;;;;;;5.86;100.00;98837.38;5104581;22;22113;-79
2022/01/03 07:26:36;;;;;;;12.83;5.77;;;;;;;5.84;100.00;98840.16;5087533;22;21065;-84
2022/01/03 07:29:03;;;;;;;14.00;6.27;;;;;;;5.95;100.00;98848.84;5124311;22;20202;-80
2022/01/03 07:31:30;;;;;;;12.93;6.30;;;;;;;5.97;100.00;98847.72;5148987;22;20205;-82
2022/01/03 07:33:56;;;;;;;21.13;7.80;;;;;;;5.99;100.00;98844.91;5105349;22;20863;-82
2022/01/03 07:36:23;;;;;;;14.47;7.20;;;;;;;6.00;100.00;98847.41;5113647;22;22448;-85
2022/01/03 07:38:50;;;;;;;19.07;7.50;;;;;;;5.99;100.00;98845.72;5145704;22;20210;-83
2022/01/03 07:41:16;;;;;;;13.23;7.30;;;;;;;6.07;100.00;98842.34;5145324;22;20252;-81
2022/01/03 07:43:44;;;;;;;19.73;7.87;;;;;;;6.05;100.00;98844.28;5097518;22;21872;-84
2022/01/03 07:46:11;;;;;;;14.60;7.13;;;;;;;6.09;100.00;98849.13;5107069;22;20234;-82
2022/01/03 07:48:41;;;;;;;15.80;8.20;;;;;;;6.09;100.00;98845.66;5111408;22;21317;-84
2022/01/03 07:51:08;;;;;;;18.07;7.93;;;;;;;6.15;100.00;98850.28;5121815;22;20206;-81
2022/01/03 07:53:35;;;;;;;21.07;7.83;;;;;;;6.12;100.00;98846.16;5156897;22;20837;-85
2022/01/03 07:56:04;;;;;;;20.80;7.87;;;;;;;6.21;100.00;98847.03;5133242;22;22273;-81
2022/01/03 07:58:32;;;;;;;16.13;7.50;;;;;;;6.31;100.00;98849.56;5094086;22;20873;-81
2022/01/03 08:00:59;;;;;;;17.57;8.10;;;;;;;6.30;100.00;98840.81;5117645;22;20198;-78
2022/01/03 08:03:26;;;;;;;21.00;8.33;;;;;;;6.34;100.00;98839.53;5097172;22;20399;-81
2022/01/03 08:06:07;;;;;;;16.03;7.40;;;;;;;6.27;100.00;98849.03;5140104;22;20370;-81
2022/01/03 08:08:35;;;;;;;15.83;7.17;;;;;;;6.31;100.00;98839.81;5103824;22;21133;-83
2022/01/03 08:11:02;;;;;;;16.53;7.30;;;;;;;6.27;100.00;98837.66;5082248;22;20251;-83
2022/01/03 08:13:29;;;;;;;12.97;7.13;;;;;;;6.39;100.00;98840.84;5103005;22;20416;-84
2022/01/03 08:15:56;;;;;;;15.63;7.03;;;;;;;6.28;100.00;98836.69;5086661;23;20262;-87
2022/01/03 08:18:23;;;;;;;15.80;7.03;;;;;;;6.23;100.00;98828.41;5089225;22;21610;-84
2022/01/03 08:20:51;;;;;;;21.40;8.27;;;;;;;6.23;100.00;98831.88;5106379;22;20323;-88
2022/01/03 08:23:18;;;;;;;15.23;7.73;;;;;;;6.40;100.00;98838.06;5091744;22;22089;-84
2022/01/03 08:25:45;;;;;;;13.17;7.07;;;;;;;6.50;100.00;98833.47;5096913;22;20293;-84
2022/01/03 08:28:12;;;;;;;12.40;6.53;;;;;;;6.48;100.00;98830.16;5122856;22;20819;-84
2022/01/03 08:30:38;;;;;;;19.07;6.87;;;;;;;6.51;100.00;98829.03;5080067;22;20211;-82
2022/01/03 08:33:05;;;;;;;18.90;7.27;;;;;;;6.60;100.00;98827.22;5105313;22;21742;-83
2022/01/03 08:35:34;;;;;;;15.30;6.30;;;;;;;6.68;100.00;98820.16;5110391;22;20823;-87
2022/01/03 08:38:04;;;;;;;19.50;7.43;;;;;;;6.64;100.00;98834.69;5117007;22;24684;-82
2022/01/03 08:40:34;;;;;;;18.07;7.00;;;;;;;6.69;100.00;98829.75;5101117;22;20315;-85
2022/01/03 08:43:00;;;;;;;13.47;5.93;;;;;;;6.68;100.00;98830.75;5106957;22;20545;-83
2022/01/03 08:45:27;;;;;;;22.10;7.10;;;;;;;6.67;100.00;98828.25;5101761;22;20596;-82
2022/01/03 08:47:54;;;;;;;12.60;6.47;;;;;;;6.66;100.00;98830.06;5099612;22;20209;-82
2022/01/03 08:50:21;;;;;;;17.60;6.70;;;;;;;6.65;100.00;98835.50;5117777;22;20214;-84
2022/01/03 08:52:48;;;;;;;13.00;6.30;;;;;;;6.71;100.00;98834.88;5109239;22;20703;-81
2022/01/03 08:55:15;;;;;;;16.43;6.47;;;;;;;6.75;100.00;98837.03;5088286;22;20206;-83
2022/01/03 08:57:43;;;;;;;17.30;6.50;;;;;;;6.83;100.00;98838.88;5098758;22;20212;-82
2022/01/03 09:00:11;;;;;;;15.77;6.77;;;;;;;6.79;100.00;98842.00;5122009;22;20252;-80
2022/01/03 09:02:37;;;;;;;19.47;6.37;;;;;;;6.83;100.00;98841.53;5122634;22;20201;-81
2022/01/03 09:05:04;;;;;;;15.53;7.03;;;;;;;6.80;100.00;98839.22;5093366;22;20210;-81
2022/01/03 09:07:31;;;;;;;16.53;7.27;;;;;;;6.78;100.00;98845.66;5112090;22;20263;-80
2022/01/03 09:09:57;;;;;;;14.97;7.60;;;;;;;6.70;100.00;98849.91;5123013;22;20283;-80
2022/01/03 09:12:24;;;;;;;15.43;6.77;;;;;;;6.78;100.00;98854.41;5144353;22;21888;-84
2022/01/03 09:14:51;;;;;;;11.57;6.53;;;;;;;6.85;100.00;98846.66;5106272;22;20413;-84
2022/01/03 09:17:18;;;;;;;14.63;6.97;;;;;;;6.78;100.00;98851.75;5117806;22;20202;-82
2022/01/03 09:19:44;;;;;;;15.97;6.40;;;;;;;6.78;100.00;98846.47;5140588;22;20202;-84
2022/01/03 09:22:21;;;;;;;20.00;7.33;;;;;;;6.80;100.00;98844.50;5134072;22;20334;-86
2022/01/03 09:30:12;;;;;;;16.50;8.63;;;;;;;6.74;100.00;98843.34;5103357;22;20214;-80
2022/01/03 09:32:39;;;;;;;13.83;8.10;;;;;;;6.72;100.00;98842.66;5119222;22;20206;-81
2022/01/03 09:35:09;;;;;;;14.17;7.07;;;;;;;6.65;100.00;98840.78;5134945;22;20206;-80
2022/01/03 09:37:36;;;;;;;11.63;6.57;;;;;;;6.69;100.00;98837.66;5110112;22;21017;-79
2022/01/03 09:40:04;;;;;;;12.37;7.13;;;;;;;6.63;100.00;98833.03;5101898;22;20216;-78
2022/01/03 09:42:33;;;;;;;15.83;7.40;;;;;;;6.67;100.00;98829.09;5118711;22;23492;-81
2022/01/03 09:45:07;;;;;;;16.80;7.50;;;;;;;6.58;100.00;98837.97;5096611;22;20213;-82
2022/01/03 09:47:37;;;;;;;10.90;6.33;;;;;;;6.63;100.00;98843.63;5103296;22;20732;-81
2022/01/03 09:50:06;;;;;;;12.30;6.87;;;;;;;6.58;100.00;98832.69;5112597;22;20297;-79
2022/01/03 09:52:33;;;;;;;12.03;6.23;;;;;;;6.49;100.00;98828.38;5139569;22;20372;-81
2022/01/03 09:55:01;;;;;;;11.13;6.40;;;;;;;6.43;100.00;98828.97;5114997;22;20202;-84
2022/01/03 09:57:29;;;;;;;9.27;5.97;;;;;;;6.34;100.00;98828.97;5104144;22;20206;-86
2022/01/03 09:59:58;;;;;;;15.70;6.80;;;;;;;6.29;100.00;98820.66;5104605;22;25489;-81
2022/01/03 10:02:27;;;;;;;10.43;6.10;;;;;;;6.21;100.00;98828.56;5081068;22;21139;-80
2022/01/03 10:04:54;;;;;;;13.80;6.73;;;;;;;6.20;100.00;98829.50;5113943;22;20709;-87
2022/01/03 10:07:22;;;;;;;13.87;6.73;;;;;;;6.12;100.00;98826.84;5107447;22;20206;-84
2022/01/03 10:09:49;;;;;;;10.77;6.63;;;;;;;6.09;100.00;98820.06;5098062;22;20205;-78
2022/01/03 10:12:17;;;;;;;12.37;6.37;;;;;;;6.05;100.00;98818.72;5118806;22;20304;-84
2022/01/03 10:14:44;;;;;;;10.30;6.37;;;;;;;6.01;100.00;98819.19;5079468;22;20279;-79
2022/01/03 10:17:11;;;;;;;9.77;6.33;;;;;;;6.05;100.00;98824.00;5124084;22;21663;-75
2022/01/03 10:19:52;;;;;;;13.10;6.37;;;;;;;5.99;100.00;98818.50;5123264;22;20202;-79
2022/01/03 10:22:23;;;;;;;12.83;6.73;;;;;;;5.97;100.00;98817.81;5075133;22;22961;-79
2022/01/03 10:24:51;;;;;;;12.63;6.37;;;;;;;6.02;100.00;98816.41;5122227;22;22776;-79
2022/01/03 10:27:19;;;;;;;8.60;4.83;;;;;;;5.93;100.00;98819.94;5102881;22;21721;-78
2022/01/03 10:29:56;;;;;;;9.57;5.10;;;;;;;5.93;100.00;98814.66;5111077;22;21700;-84
2022/01/03 10:32:28;;;;;;;8.73;4.80;;;;;;;5.89;100.00;98813.28;5139212;22;20256;-83
2022/01/03 10:34:56;;;;;;;12.23;5.20;;;;;;;5.86;100.00;98819.72;5101424;22;21626;-77
2022/01/03 10:37:34;;;;;;;9.63;5.07;;;;;;;5.82;100.00;98825.47;5115855;22;20893;-78
2022/01/03 10:40:31;;;;;;;10.20;5.30;;;;;;;5.84;100.00;98816.41;5095461;22;20209;-75
2022/01/03 10:43:12;;;;;;;9.80;4.90;;;;;;;5.85;100.00;98822.50;5129366;22;21502;-77
2022/01/03 10:45:39;;;;;;;10.97;4.73;;;;;;;5.85;100.00;98822.50;5101522;22;20210;-79
2022/01/03 10:48:27;;;;;;;10.27;5.87;;;;;;;5.80;100.00;98819.50;5097834;22;20917;-78
2022/01/03 10:50:56;;;;;;;9.83;4.83;;;;;;;5.76;100.00;98818.16;5093346;22;20212;-76
2022/01/03 10:53:32;;;;;;;8.20;4.47;;;;;;;5.78;100.00;98817.00;5110476;23;21756;-77
2022/01/03 10:55:59;;;;;;;8.27;3.87;;;;;;;5.77;100.00;98817.19;5086868;22;21503;-75
2022/01/03 10:58:33;;;;;;;10.13;4.40;;;;;;;5.76;100.00;98824.28;5099904;22;22173;-80
2022/01/03 11:01:00;;;;;;;6.83;3.27;;;;;;;5.74;100.00;98815.69;5116117;22;20519;-78
2022/01/03 11:03:39;;;;;;;7.10;3.83;;;;;;;5.72;100.00;98815.81;5135180;22;20562;-81
2022/01/03 11:06:21;;;;;;;6.67;3.70;;;;;;;5.75;100.00;98806.78;5120049;22;20205;-78
2022/01/03 11:11:38;;;;;;;6.23;3.37;;;;;;;5.79;100.00;98816.03;5133509;22;20729;-77
2022/01/03 11:14:07;;;;;;;6.77;3.63;;;;;;;5.73;100.00;98811.38;5096841;22;21022;-77
2022/01/03 11:16:36;;;;;;;7.17;3.47;;;;;;;5.77;100.00;98804.81;5106458;22;20198;-77
2022/01/03 11:19:03;;;;;;;14.87;4.80;;;;;;;5.75;100.00;98809.41;5113508;22;20287;-77
2022/01/03 11:21:31;;;;;;;8.87;3.60;;;;;;;5.71;100.00;98805.41;5113121;22;20201;-76
2022/01/03 11:24:09;;;;;;;7.37;4.00;;;;;;;5.66;100.00;98807.69;5112912;22;22464;-77
2022/01/03 11:26:40;;;;;;;8.10;2.93;;;;;;;5.71;100.00;98806.25;5116385;22;25760;-75
2022/01/03 11:29:08;;;;;;;8.50;3.40;;;;;;;5.74;100.00;98804.31;5119812;22;20202;-75
2022/01/03 11:31:38;;;;;;;8.60;3.57;;;;;;;5.83;100.00;98801.56;5105765;22;20235;-77
2022/01/03 11:34:09;;;;;;;7.27;3.43;;;;;;;5.76;100.00;98800.53;5108263;22;21065;-75
2022/01/03 11:36:57;;;;;;;9.77;4.10;;;;;;;5.73;100.00;98798.16;5117653;22;20209;-74
2022/01/03 11:39:25;;;;;;;7.10;3.60;;;;;;;5.83;100.00;98793.66;5115656;22;20308;-76
2022/01/03 11:41:53;;;;;;;10.40;4.30;;;;;;;5.85;100.00;98798.75;5102311;22;20266;-77
2022/01/03 11:44:20;;;;;;;6.17;3.37;;;;;;;5.87;100.00;98792.31;5106694;22;20206;-78
2022/01/03 11:46:47;;;;;;;11.40;4.30;;;;;;;5.93;100.00;98793.53;5114287;22;20230;-75
2022/01/03 11:49:16;;;;;;;9.50;3.80;;;;;;;5.86;100.00;98793.31;5082809;23;20209;-75
2022/01/03 11:51:43;;;;;;;6.43;4.17;;;;;;;5.95;100.00;98796.03;5092596;22;23144;-74
2022/01/03 11:54:10;;;;;;;11.93;5.40;;;;;;;5.93;100.00;98785.63;5098732;22;20206;-77